Time;durP1;ratioP1;P1;durP2;ratioP2;P2;SDS_P1;SDS_P2;PMS_P1;PMS_P2;Temp;Humidity;BMP_temperature;BMP_pressure;BME280_temperature;BME280_humidity;BME280_pressure;Samples;Min_cycle;Max_cycle;Signal;HPM_P1;HPM_P2
2022/03/19 00:01:52;;;;;;;27.95;13.40;;;;;;;-148.16;100.00;58328.31;5030915;28;20053;-60
2022/03/19 00:04:37;;;;;;;21.67;11.55;;;;;;;-148.16;100.00;58328.31;5031124;28;20045;-60
2022/03/19 00:07:21;;;;;;;31.02;15.23;;;;;;;-148.16;100.00;58328.31;5030005;28;20045;-61
2022/03/19 00:10:09;;;;;;;25.80;11.80;;;;;;;-148.16;100.00;58328.31;5029912;28;20111;-60
2022/03/19 00:12:54;;;;;;;31.85;15.95;;;;;;;-148.16;100.00;58328.31;5029731;28;20498;-61
2022/03/19 00:15:40;;;;;;;29.48;16.10;;;;;;;-148.16;100.00;58328.31;5029656;28;20091;-61
2022/03/19 00:18:24;;;;;;;26.08;14.60;;;;;;;-148.16;100.00;58328.31;5030634;28;20038;-60
2022/03/19 00:21:09;;;;;;;23.20;12.45;;;;;;;-148.16;100.00;58328.31;5030937;28;20041;-60
2022/03/19 00:23:54;;;;;;;30.17;16.00;;;;;;;-148.16;100.00;58328.31;5043805;28;20052;-61
2022/03/19 00:26:39;;;;;;;31.73;15.10;;;;;;;-148.16;100.00;58328.31;5029744;28;20049;-60
2022/03/19 00:29:24;;;;;;;23.08;12.55;;;;;;;-148.16;100.00;58328.31;5030056;28;20042;-60
2022/03/19 00:32:09;;;;;;;24.33;11.57;;;;;;;-148.16;100.00;58328.31;5030042;28;20037;-60
2022/03/19 00:34:55;;;;;;;25.02;13.18;;;;;;;-148.16;100.00;58328.31;5043882;28;20049;-61
2022/03/19 00:37:46;;;;;;;25.90;12.38;;;;;;;-148.16;100.00;58328.31;5033303;28;20061;-60
2022/03/19 00:40:33;;;;;;;25.55;12.90;;;;;;;-148.16;100.00;58328.31;5033287;28;20128;-60
2022/03/19 00:43:21;;;;;;;27.15;14.95;;;;;;;-148.16;100.00;58328.31;5034258;28;20053;-60
2022/03/19 00:46:06;;;;;;;30.25;14.43;;;;;;;-148.16;100.00;58328.31;5047165;28;20060;-60
2022/03/19 00:48:52;;;;;;;30.20;15.45;;;;;;;-148.16;100.00;58328.31;5046965;28;20370;-60
2022/03/19 00:51:38;;;;;;;33.00;17.25;;;;;;;-148.16;100.00;58328.31;5033950;28;20440;-60
2022/03/19 00:54:24;;;;;;;33.42;18.65;;;;;;;-148.16;100.00;58328.31;5033806;28;20061;-60
2022/03/19 00:57:08;;;;;;;24.83;12.50;;;;;;;-148.16;100.00;58328.31;5034453;28;20047;-61
2022/03/19 00:59:53;;;;;;;27.90;14.15;;;;;;;-148.16;100.00;58328.31;5033958;28;20155;-60
2022/03/19 01:02:39;;;;;;;35.58;16.52;;;;;;;-148.16;100.00;58328.31;5032940;28;20060;-61
2022/03/19 01:05:25;;;;;;;32.60;16.40;;;;;;;-148.16;100.00;58328.31;5046939;28;20068;-61
2022/03/19 01:08:11;;;;;;;29.48;15.60;;;;;;;-148.16;100.00;58328.31;5034191;28;20050;-61
2022/03/19 01:10:56;;;;;;;25.52;13.80;;;;;;;-148.16;100.00;58328.31;5034329;28;20049;-61
2022/03/19 01:13:40;;;;;;;29.02;15.07;;;;;;;-148.16;100.00;58328.31;5033803;28;20042;-60
2022/03/19 01:16:26;;;;;;;35.38;18.80;;;;;;;-148.16;100.00;58328.31;5033291;28;20045;-60
2022/03/19 01:19:11;;;;;;;33.65;17.38;;;;;;;-148.16;100.00;58328.31;5033727;28;20121;-60
2022/03/19 01:21:56;;;;;;;24.08;13.70;;;;;;;-148.16;100.00;58328.31;5033627;28;20621;-60
2022/03/19 01:24:41;;;;;;;27.77;15.18;;;;;;;-148.16;100.00;58328.31;5033180;28;20045;-59
2022/03/19 01:27:26;;;;;;;28.45;14.70;;;;;;;-148.16;100.00;58328.31;5018367;28;20641;-59
2022/03/19 01:30:13;;;;;;;31.65;16.75;;;;;;;-148.16;100.00;58328.31;5033336;28;20263;-60
2022/03/19 01:32:58;;;;;;;31.75;16.88;;;;;;;-148.16;100.00;58328.31;5032250;28;20041;-61
2022/03/19 01:35:42;;;;;;;27.23;15.02;;;;;;;-148.16;100.00;58328.31;5033871;28;20128;-60
2022/03/19 01:38:27;;;;;;;28.85;15.13;;;;;;;-148.16;100.00;58328.31;5033257;28;20477;-60
2022/03/19 01:41:13;;;;;;;32.20;16.55;;;;;;;-148.16;100.00;58328.31;5033413;28;20053;-61
2022/03/19 01:43:58;;;;;;;32.10;17.05;;;;;;;-148.16;100.00;58328.31;5032702;28;20088;-60
2022/03/19 01:47:00;;;;;;;37.03;19.55;;;;;;;-148.16;100.00;58328.31;5033175;28;20049;-63
2022/03/19 01:49:45;;;;;;;39.53;20.17;;;;;;;-148.16;100.00;58328.31;5032243;28;20095;-60
2022/03/19 01:52:30;;;;;;;36.60;19.33;;;;;;;-148.16;100.00;58328.31;5032976;28;20049;-63
2022/03/19 01:55:18;;;;;;;33.53;17.05;;;;;;;-148.16;100.00;58328.31;5032531;28;20054;-60
2022/03/19 01:58:04;;;;;;;34.20;18.55;;;;;;;-148.16;100.00;58328.31;5032673;28;20103;-61
2022/03/19 02:00:49;;;;;;;44.85;20.17;;;;;;;-148.16;100.00;58328.31;5031714;28;20129;-61
2022/03/19 02:03:34;;;;;;;33.92;17.95;;;;;;;-148.16;100.00;58328.31;5032517;28;20042;-60
2022/03/19 02:06:26;;;;;;;36.47;18.40;;;;;;;-148.16;100.00;58328.31;5032353;28;20049;-60
2022/03/19 02:09:11;;;;;;;40.05;19.30;;;;;;;-148.16;100.00;58328.31;5045429;28;20408;-60
2022/03/19 02:11:57;;;;;;;33.70;16.70;;;;;;;-148.16;100.00;58328.31;5045275;28;20045;-60
2022/03/19 02:14:41;;;;;;;29.73;15.05;;;;;;;-148.16;100.00;58328.31;5032141;28;20041;-60
2022/03/19 02:17:26;;;;;;;35.20;17.73;;;;;;;-148.16;100.00;58328.31;5032374;28;20084;-61
2022/03/19 02:20:12;;;;;;;31.50;17.73;;;;;;;-148.16;100.00;58328.31;5032357;28;20045;-60
2022/03/19 02:26:00;;;;;;;36.08;18.60;;;;;;;-148.16;100.00;58328.31;5017774;28;20060;-60
2022/03/19 02:28:45;;;;;;;36.13;17.77;;;;;;;-148.16;100.00;58328.31;5031293;28;20060;-60
2022/03/19 02:31:30;;;;;;;35.97;18.33;;;;;;;-148.16;100.00;58328.31;5032209;28;20053;-61
2022/03/19 02:34:16;;;;;;;32.80;16.50;;;;;;;-148.16;100.00;58328.31;5032078;28;20061;-60
2022/03/19 02:37:02;;;;;;;34.05;18.13;;;;;;;-148.16;100.00;58328.31;5030848;28;20041;-60
2022/03/19 02:39:47;;;;;;;33.97;17.98;;;;;;;-148.16;100.00;58328.31;5031736;28;20037;-60
2022/03/19 02:42:32;;;;;;;37.58;18.35;;;;;;;-148.16;100.00;58328.31;5031849;28;20041;-59
2022/03/19 02:45:21;;;;;;;33.78;17.08;;;;;;;-148.16;100.00;58328.31;5031548;28;20052;-60
2022/03/19 02:48:06;;;;;;;32.67;16.63;;;;;;;-148.16;100.00;58328.31;5044473;28;20121;-61
2022/03/19 02:50:51;;;;;;;30.42;16.15;;;;;;;-148.16;100.00;58328.31;5031565;28;20049;-61
2022/03/19 02:53:37;;;;;;;31.75;16.95;;;;;;;-148.16;100.00;58328.31;5031429;28;20045;-61
2022/03/19 02:56:22;;;;;;;31.60;16.52;;;;;;;-148.16;100.00;58328.31;5030615;28;20041;-60
2022/03/19 02:59:09;;;;;;;35.83;18.45;;;;;;;-148.16;100.00;58328.31;5030133;28;20042;-60
2022/03/19 03:01:56;;;;;;;37.22;19.13;;;;;;;-148.16;100.00;58328.31;5031735;28;20048;-63
2022/03/19 03:04:41;;;;;;;40.28;20.20;;;;;;;-148.16;100.00;58328.31;5030508;28;20057;-62
2022/03/19 03:07:26;;;;;;;31.20;15.35;;;;;;;-148.16;100.00;58328.31;5017175;28;20057;-61
2022/03/19 03:10:15;;;;;;;37.38;19.63;;;;;;;-148.16;100.00;58328.31;5044596;28;20073;-61
2022/03/19 03:13:00;;;;;;;33.85;18.13;;;;;;;-148.16;100.00;58328.31;5031324;28;20546;-62
2022/03/19 03:15:45;;;;;;;39.05;19.10;;;;;;;-148.16;100.00;58328.31;5031595;28;20045;-61
2022/03/19 03:18:31;;;;;;;40.60;19.38;;;;;;;-148.16;100.00;58328.31;5031304;28;20045;-60
2022/03/19 03:21:16;;;;;;;36.85;18.85;;;;;;;-148.16;100.00;58328.31;5030503;28;20045;-60
2022/03/19 03:24:03;;;;;;;35.65;18.23;;;;;;;-148.16;100.00;58328.31;5030194;28;20049;-60
2022/03/19 03:26:48;;;;;;;32.95;16.90;;;;;;;-148.16;100.00;58328.31;5044131;28;20045;-61
2022/03/19 03:29:33;;;;;;;29.95;15.95;;;;;;;-148.16;100.00;58328.31;5030346;28;20049;-61
2022/03/19 03:32:19;;;;;;;31.33;16.13;;;;;;;-148.16;100.00;58328.31;5030287;28;20046;-60
2022/03/19 03:35:04;;;;;;;34.70;16.52;;;;;;;-148.16;100.00;58328.31;5030852;28;20064;-61
2022/03/19 03:37:49;;;;;;;33.25;16.73;;;;;;;-148.16;100.00;58328.31;5030200;28;20053;-60
2022/03/19 03:40:34;;;;;;;36.38;17.10;;;;;;;-148.16;100.00;58328.31;5031009;28;20795;-60
2022/03/19 03:43:20;;;;;;;33.08;15.75;;;;;;;-148.16;100.00;58328.31;5016134;28;20402;-63
2022/03/19 03:46:05;;;;;;;31.27;16.15;;;;;;;-148.16;100.00;58328.31;5030116;28;20504;-60
2022/03/19 03:48:50;;;;;;;30.88;16.30;;;;;;;-148.16;100.00;58328.31;5044290;28;20397;-61
2022/03/19 03:51:35;;;;;;;31.88;15.57;;;;;;;-148.16;100.00;58328.31;5031152;28;20053;-60
2022/03/19 03:54:20;;;;;;;33.80;16.70;;;;;;;-148.16;100.00;58328.31;5043858;28;20137;-61
2022/03/19 03:57:04;;;;;;;30.77;15.68;;;;;;;-148.16;100.00;58328.31;5031079;28;20054;-60
2022/03/19 03:59:52;;;;;;;27.42;15.05;;;;;;;-148.16;100.00;58328.31;5044290;28;20378;-61
2022/03/19 04:02:37;;;;;;;36.72;16.70;;;;;;;-148.16;100.00;58328.31;5030398;28;20135;-60
2022/03/19 04:05:22;;;;;;;32.97;17.23;;;;;;;-148.16;100.00;58328.31;5031250;28;20072;-61
2022/03/19 04:08:08;;;;;;;30.05;15.15;;;;;;;-148.16;100.00;58328.31;5031276;28;20045;-61
2022/03/19 04:10:53;;;;;;;28.60;16.42;;;;;;;-148.16;100.00;58328.31;5030230;28;20045;-60
2022/03/19 04:13:38;;;;;;;32.83;16.67;;;;;;;-148.16;100.00;58328.31;5033689;28;20091;-60
2022/03/19 04:16:22;;;;;;;32.25;15.77;;;;;;;-148.16;100.00;58328.31;5034422;28;20093;-60
2022/03/19 04:19:07;;;;;;;32.55;16.60;;;;;;;-148.16;100.00;58328.31;5047658;28;20044;-60
2022/03/19 04:21:52;;;;;;;30.08;15.00;;;;;;;-148.16;100.00;58328.31;5047435;28;20045;-60
2022/03/19 04:24:37;;;;;;;29.05;14.70;;;;;;;-148.16;100.00;58328.31;5047619;28;20394;-60
2022/03/19 04:27:21;;;;;;;28.35;12.82;;;;;;;-148.16;100.00;58328.31;5034899;28;20038;-60
2022/03/19 04:30:07;;;;;;;27.77;14.82;;;;;;;-148.16;100.00;58328.31;5047594;28;20103;-60
2022/03/19 04:32:54;;;;;;;24.98;13.75;;;;;;;-148.16;100.00;58328.31;5033219;28;20041;-60
2022/03/19 04:38:43;;;;;;;25.52;13.38;;;;;;;-148.16;100.00;58328.31;5032967;28;20050;-60
2022/03/19 04:41:30;;;;;;;26.60;14.07;;;;;;;-148.16;100.00;58328.31;5033113;28;20045;-60
2022/03/19 04:44:16;;;;;;;31.23;17.08;;;;;;;-148.16;100.00;58328.31;5032750;28;20053;-59
2022/03/19 04:47:01;;;;;;;27.48;14.90;;;;;;;-148.16;100.00;58328.31;5034061;28;20046;-62
2022/03/19 04:49:46;;;;;;;29.73;15.75;;;;;;;-148.16;100.00;58328.31;5034053;28;20477;-61
2022/03/19 04:52:34;;;;;;;27.80;14.40;;;;;;;-148.16;100.00;58328.31;5046587;28;20045;-61
2022/03/19 04:55:19;;;;;;;35.40;16.65;;;;;;;-148.16;100.00;58328.31;5019033;28;20543;-61
2022/03/19 04:58:05;;;;;;;34.40;16.20;;;;;;;-148.16;100.00;58328.31;5033119;28;20049;-60
2022/03/19 05:00:50;;;;;;;31.98;14.20;;;;;;;-148.16;100.00;58328.31;5033447;28;20378;-62
2022/03/19 05:03:35;;;;;;;34.75;17.52;;;;;;;-148.16;100.00;58328.31;5033776;28;20045;-60
2022/03/19 05:06:21;;;;;;;33.65;16.33;;;;;;;-148.16;100.00;58328.31;5033333;28;20463;-61
2022/03/19 05:12:28;;;;;;;38.05;19.38;;;;;;;-148.16;100.00;58328.31;5035612;28;20072;-61
2022/03/19 05:15:15;;;;;;;27.23;14.65;;;;;;;-148.16;100.00;58328.31;5034354;28;20045;-61
2022/03/19 05:18:00;;;;;;;28.00;14.60;;;;;;;-148.16;100.00;58328.31;5033623;28;20052;-60
2022/03/19 05:20:45;;;;;;;30.63;14.75;;;;;;;-148.16;100.00;58328.31;5032854;28;20080;-61
2022/03/19 05:23:31;;;;;;;32.88;15.88;;;;;;;-148.16;100.00;58328.31;5031530;28;20127;-61
2022/03/19 05:26:16;;;;;;;29.33;14.85;;;;;;;-148.16;100.00;58328.31;5032611;28;20050;-61
2022/03/19 05:29:02;;;;;;;31.38;15.80;;;;;;;-148.16;100.00;58328.31;5030290;28;20120;-61
2022/03/19 05:31:48;;;;;;;30.35;15.32;;;;;;;-148.16;100.00;58328.31;5030956;28;20041;-60
2022/03/19 05:34:35;;;;;;;30.63;15.60;;;;;;;-148.16;100.00;58328.31;5016229;28;20058;-62
2022/03/19 05:37:21;;;;;;;28.58;15.50;;;;;;;-148.16;100.00;58328.31;5030986;28;20041;-61
2022/03/19 05:40:08;;;;;;;28.50;15.48;;;;;;;-148.16;100.00;58328.31;5032544;28;20056;-61
2022/03/19 05:42:54;;;;;;;32.85;16.77;;;;;;;-148.16;100.00;58328.31;5033004;28;20076;-61
2022/03/19 05:45:40;;;;;;;32.15;16.13;;;;;;;-148.16;100.00;58328.31;5053329;28;20053;-61
2022/03/19 05:48:24;;;;;;;28.98;16.13;;;;;;;-148.16;100.00;58328.31;5031446;28;20049;-61
2022/03/19 05:51:09;;;;;;;31.55;16.42;;;;;;;-148.16;100.00;58328.31;5031864;28;20046;-60
2022/03/19 05:53:55;;;;;;;34.40;16.80;;;;;;;-148.16;100.00;58328.31;5059775;28;20071;-61
2022/03/19 05:56:39;;;;;;;46.08;29.25;;;;;;;-148.16;100.00;58328.31;5032574;28;20396;-63
2022/03/19 05:59:24;;;;;;;32.30;17.08;;;;;;;-148.16;100.00;58328.31;5031914;28;20055;-62
2022/03/19 06:02:09;;;;;;;37.35;18.13;;;;;;;-148.16;100.00;58328.31;5030476;28;20494;-67
2022/03/19 06:04:55;;;;;;;37.58;17.33;;;;;;;-148.16;100.00;58328.31;5029179;28;20068;-65
2022/03/19 06:07:39;;;;;;;37.60;17.60;;;;;;;-148.16;100.00;58328.31;5018421;28;20056;-65
2022/03/19 06:10:25;;;;;;;37.30;17.90;;;;;;;-148.16;100.00;58328.31;5015997;28;20065;-65
2022/03/19 06:13:10;;;;;;;52.67;28.85;;;;;;;-148.16;100.00;58328.31;5031545;28;20076;-67
2022/03/19 06:15:55;;;;;;;32.40;17.95;;;;;;;-148.16;100.00;58328.31;5031132;28;20052;-66
2022/03/19 06:18:45;;;;;;;37.50;18.40;;;;;;;-148.16;100.00;58328.31;5033383;28;20041;-69
2022/03/19 06:21:31;;;;;;;34.25;17.65;;;;;;;-148.16;100.00;58328.31;5032520;28;20053;-69
2022/03/19 06:24:17;;;;;;;33.03;17.52;;;;;;;-148.16;100.00;58328.31;5032610;28;20037;-67
2022/03/19 06:27:02;;;;;;;32.17;16.88;;;;;;;-148.16;100.00;58328.31;5033677;28;20045;-69
2022/03/19 06:29:46;;;;;;;37.03;18.17;;;;;;;-148.16;100.00;58328.31;5030388;28;20044;-67
2022/03/19 06:32:32;;;;;;;52.40;28.92;;;;;;;-148.16;100.00;58328.31;5033323;28;20049;-65
2022/03/19 06:37:19;;;;;;;33.72;17.85;;;;;;;-148.16;100.00;58328.31;5033085;28;20576;-68
2022/03/19 06:38:22;;;;;;;32.50;17.65;;;;;;;-148.16;100.00;58328.31;5030581;28;20065;-64
2022/03/19 06:41:07;;;;;;;34.20;17.63;;;;;;;-148.16;100.00;58328.31;5030266;28;20064;-66
2022/03/19 06:43:52;;;;;;;32.83;17.48;;;;;;;-148.16;100.00;58328.31;5003011;28;20485;-69
2022/03/19 06:46:37;;;;;;;33.35;16.67;;;;;;;-148.16;100.00;58328.31;5016196;28;20045;-67
2022/03/19 06:49:23;;;;;;;32.75;16.67;;;;;;;-148.16;100.00;58328.31;5031051;28;20049;-68
2022/03/19 06:52:10;;;;;;;34.05;16.40;;;;;;;-148.16;100.00;58328.31;5030116;28;20045;-65
2022/03/19 06:54:55;;;;;;;30.35;16.50;;;;;;;-148.16;100.00;58328.31;5034358;28;20393;-61
2022/03/19 06:57:40;;;;;;;36.92;16.85;;;;;;;-148.16;100.00;58328.31;5029659;28;20046;-66
2022/03/19 07:00:26;;;;;;;32.83;16.77;;;;;;;-148.16;100.00;58328.31;5031598;28;20254;-64
2022/03/19 07:03:12;;;;;;;28.52;15.95;;;;;;;-148.16;100.00;58328.31;5013170;28;20099;-64
2022/03/19 07:05:57;;;;;;;31.63;17.20;;;;;;;-148.16;100.00;58328.31;5037619;28;20489;-58
2022/03/19 07:08:43;;;;;;;25.75;15.82;;;;;;;-148.16;100.00;58328.31;5040003;28;20103;-52
2022/03/19 07:11:28;;;;;;;31.00;15.77;;;;;;;-148.16;100.00;58328.31;5032936;28;20053;-67
2022/03/19 07:14:13;;;;;;;30.83;15.20;;;;;;;-148.16;100.00;58328.31;5029201;28;20507;-64
2022/03/19 07:16:58;;;;;;;31.17;15.77;;;;;;;-148.16;100.00;58328.31;5044210;28;20394;-63
2022/03/19 07:19:43;;;;;;;28.83;15.95;;;;;;;-148.16;100.00;58328.31;5029559;28;20539;-67
2022/03/19 07:22:28;;;;;;;29.33;15.73;;;;;;;-148.16;100.00;58328.31;5045004;28;20046;-67
2022/03/19 07:25:14;;;;;;;33.83;17.17;;;;;;;-148.16;100.00;58328.31;5003130;28;20095;-70
2022/03/19 07:28:01;;;;;;;33.67;17.65;;;;;;;-148.16;100.00;58328.31;5030778;28;20052;-72
2022/03/19 07:30:47;;;;;;;35.88;16.52;;;;;;;-148.16;100.00;58328.31;5031552;28;20049;-67
2022/03/19 07:33:34;;;;;;;38.47;18.58;;;;;;;-148.16;100.00;58328.31;5030100;28;20033;-65
2022/03/19 07:36:21;;;;;;;37.33;16.92;;;;;;;-148.16;100.00;58328.31;5030369;28;20052;-65
2022/03/19 07:39:06;;;;;;;33.92;17.50;;;;;;;-148.16;100.00;58328.31;5030475;28;20045;-62
2022/03/19 07:41:52;;;;;;;31.15;16.75;;;;;;;-148.16;100.00;58328.31;5031261;28;20042;-61
2022/03/19 07:44:44;;;;;;;34.83;17.65;;;;;;;-148.16;100.00;58328.31;5030696;28;20045;-68
2022/03/19 07:47:30;;;;;;;36.88;17.45;;;;;;;-148.16;100.00;58328.31;5027035;28;20046;-68
2022/03/19 07:50:16;;;;;;;34.05;17.80;;;;;;;-148.16;100.00;58328.31;5015697;28;20474;-69
2022/03/19 07:53:01;;;;;;;37.63;17.67;;;;;;;-148.16;100.00;58328.31;5023037;28;20512;-68
2022/03/19 07:55:47;;;;;;;35.20;18.25;;;;;;;-148.16;100.00;58328.31;5032395;28;20041;-67
2022/03/19 07:58:33;;;;;;;35.45;17.10;;;;;;;-148.16;100.00;58328.31;5034897;28;20050;-68
2022/03/19 08:01:19;;;;;;;35.90;18.30;;;;;;;-148.16;100.00;58328.31;5032978;28;20053;-67
2022/03/19 08:04:05;;;;;;;30.33;15.93;;;;;;;-148.16;100.00;58328.31;5047752;28;20037;-70
2022/03/19 08:06:53;;;;;;;31.23;16.35;;;;;;;-148.16;100.00;58328.31;5034393;28;20048;-72
2022/03/19 08:09:38;;;;;;;32.92;16.15;;;;;;;-148.16;100.00;58328.31;5032633;28;20451;-67
2022/03/19 08:14:04;;;;;;;29.45;15.85;;;;;;;11.61;36.45;100861.53;5061928;27;20439;-64
2022/03/19 08:16:50;;;;;;;34.03;17.42;;;;;;;11.58;35.71;100854.63;5048175;28;20049;-63
2022/03/19 08:19:34;;;;;;;30.20;16.67;;;;;;;11.78;36.03;100846.88;5042940;28;20076;-67
2022/03/19 08:22:19;;;;;;;32.35;17.52;;;;;;;11.49;36.23;100852.34;5027802;28;20049;-67
2022/03/19 08:25:05;;;;;;;35.53;17.17;;;;;;;11.52;35.93;100848.75;5028332;28;20056;-69
2022/03/19 08:27:54;;;;;;;29.85;15.73;;;;;;;11.92;34.84;100851.56;5028289;28;20567;-68
2022/03/19 08:30:40;;;;;;;30.83;16.02;;;;;;;12.67;34.51;100851.06;5028247;28;20107;-67
2022/03/19 08:33:25;;;;;;;34.90;16.83;;;;;;;12.15;33.51;100852.41;5017560;28;20046;-65
2022/03/19 08:36:10;;;;;;;31.05;12.88;;;;;;;12.92;46.88;100852.59;5047193;28;20049;-70
2022/03/19 08:41:58;;;;;;;30.20;15.32;;;;;;;12.98;35.37;100846.19;5049552;28;20053;-65
2022/03/19 08:44:43;;;;;;;31.85;16.25;;;;;;;13.18;32.06;100847.94;5039173;28;20064;-64
2022/03/19 08:47:29;;;;;;;27.80;16.35;;;;;;;13.01;31.91;100848.69;5056216;28;20033;-63
2022/03/19 08:50:17;;;;;;;29.92;17.23;;;;;;;12.90;32.57;100844.78;5054546;28;20518;-67
2022/03/19 08:53:02;;;;;;;30.60;16.92;;;;;;;13.37;31.50;100847.91;5066131;28;20048;-65
2022/03/19 08:55:50;;;;;;;34.67;17.58;;;;;;;13.63;31.25;100842.34;5067616;28;20094;-66
2022/03/19 08:58:37;;;;;;;27.30;15.75;;;;;;;14.39;31.07;100835.94;5067616;28;20044;-66
2022/03/19 09:01:22;;;;;;;27.02;16.25;;;;;;;14.43;30.33;100836.66;5066752;28;20045;-66
2022/03/19 09:04:07;;;;;;;31.30;16.77;;;;;;;14.93;29.87;100830.59;5067007;28;20048;-65
2022/03/19 09:06:52;;;;;;;29.67;16.23;;;;;;;13.81;31.55;100837.13;5065867;28;20071;-66
2022/03/19 09:09:37;;;;;;;30.40;16.15;;;;;;;14.31;31.06;100832.00;5025988;28;20108;-66
2022/03/19 09:12:25;;;;;;;31.55;16.73;;;;;;;15.84;28.38;100832.59;5026898;28;20057;-66
2022/03/19 09:15:12;;;;;;;28.30;16.75;;;;;;;16.26;27.90;100813.44;5027194;28;20117;-66
2022/03/19 09:17:57;;;;;;;32.00;16.35;;;;;;;16.09;27.62;100815.31;5012733;28;20408;-65
2022/03/19 09:20:42;;;;;;;28.55;16.92;;;;;;;15.07;29.51;100821.91;5027329;28;20057;-65
2022/03/19 09:23:27;;;;;;;27.10;16.55;;;;;;;15.74;28.09;100824.34;5024933;28;20409;-64
2022/03/19 09:26:12;;;;;;;32.35;17.52;;;;;;;14.37;30.19;100829.06;5014208;28;20066;-66
2022/03/19 09:28:58;;;;;;;32.17;17.48;;;;;;;14.12;31.16;100832.94;5014086;28;20053;-66
2022/03/19 09:31:43;;;;;;;29.60;16.85;;;;;;;15.57;29.11;100835.03;5014005;28;20144;-67
2022/03/19 09:34:30;;;;;;;32.80;19.58;;;;;;;16.26;29.05;100831.97;5012593;28;20366;-66
2022/03/19 09:37:15;;;;;;;33.25;19.05;;;;;;;13.15;34.38;100832.28;5012798;28;20057;-67
2022/03/19 09:40:00;;;;;;;34.60;18.85;;;;;;;13.49;35.08;100835.97;5012803;28;20042;-67
2022/03/19 09:42:51;;;;;;;31.90;18.90;;;;;;;13.31;35.07;100835.03;5012756;28;20893;-67
2022/03/19 09:45:38;;;;;;;31.27;17.83;;;;;;;14.83;33.50;100827.59;5014126;28;20046;-68
2022/03/19 09:48:23;;;;;;;29.13;16.73;;;;;;;13.83;34.36;100830.84;5012703;28;20058;-66
2022/03/19 09:51:11;;;;;;;34.80;18.63;;;;;;;15.22;31.81;100822.84;5012583;28;20038;-65
2022/03/19 09:53:57;;;;;;;34.40;18.90;;;;;;;14.88;32.19;100826.41;5013518;28;20034;-65
2022/03/19 09:56:42;;;;;;;31.15;17.63;;;;;;;13.73;34.44;100829.59;5012108;28;20141;-66
2022/03/19 09:59:27;;;;;;;27.00;16.90;;;;;;;14.88;32.62;100825.56;5013351;28;20046;-64
2022/03/19 10:02:15;;;;;;;28.92;17.33;;;;;;;14.93;33.42;100820.03;5012192;28;20049;-65
2022/03/19 10:08:35;;;;;;;29.60;16.83;;;;;;;15.22;32.16;100825.50;5013625;28;20156;-66
2022/03/19 10:11:15;;;;;;;27.58;16.35;;;;;;;15.01;32.12;100821.31;5034367;28;20131;-66
2022/03/19 10:14:04;;;;;;;28.15;16.05;;;;;;;14.88;31.38;100823.75;5033020;28;20053;-66
2022/03/19 10:16:51;;;;;;;25.45;15.13;;;;;;;16.16;29.49;100814.97;5033892;28;20048;-63
2022/03/19 10:19:50;;;;;;;27.20;15.90;;;;;;;16.94;28.42;100824.31;5047001;28;20068;-67
2022/03/19 10:22:39;;;;;;;25.63;15.10;;;;;;;17.81;27.43;100825.88;5033076;28;20126;-67
2022/03/19 10:25:24;;;;;;;24.55;14.43;;;;;;;18.49;24.83;100816.13;5046138;28;20051;-65
2022/03/19 10:28:09;;;;;;;26.13;15.45;;;;;;;15.47;28.26;100816.22;5033266;28;20049;-66
2022/03/19 10:30:54;;;;;;;23.60;14.02;;;;;;;16.30;28.45;100814.97;5033789;28;20061;-65
2022/03/19 10:33:39;;;;;;;27.35;15.70;;;;;;;16.19;27.53;100818.25;5045974;28;20044;-66
2022/03/19 10:36:40;;;;;;;24.98;14.05;;;;;;;16.85;27.81;100816.97;5031886;28;20099;-66
2022/03/19 10:39:27;;;;;;;23.48;14.82;;;;;;;16.41;27.68;100811.69;5033179;28;20128;-66
2022/03/19 10:42:15;;;;;;;23.27;14.32;;;;;;;16.93;26.64;100817.34;5045208;28;20057;-65
2022/03/19 10:45:00;;;;;;;29.75;15.23;;;;;;;15.97;27.76;100810.72;5032467;28;20476;-67
2022/03/19 10:47:46;;;;;;;24.25;14.73;;;;;;;16.23;26.98;100811.00;5031371;28;20088;-65
2022/03/19 10:50:31;;;;;;;23.10;14.73;;;;;;;15.84;28.30;100811.44;5059631;28;20502;-65
2022/03/19 10:53:18;;;;;;;24.23;14.05;;;;;;;16.42;27.11;100805.44;5064898;28;20072;-66
2022/03/19 10:56:06;;;;;;;22.45;13.50;;;;;;;16.31;27.32;100803.44;5032491;28;20120;-66
2022/03/19 10:58:52;;;;;;;22.67;13.27;;;;;;;16.75;25.56;100801.66;5032707;28;20046;-65
2022/03/19 11:01:39;;;;;;;24.80;14.00;;;;;;;15.86;27.11;100798.97;5031295;28;20045;-66
2022/03/19 11:04:26;;;;;;;20.92;13.30;;;;;;;16.21;26.78;100792.56;5045035;28;20042;-67
2022/03/19 11:07:13;;;;;;;24.02;13.00;;;;;;;16.90;25.35;100795.50;5031031;28;20056;-66
2022/03/19 11:09:59;;;;;;;25.83;14.57;;;;;;;16.63;26.28;100787.38;5017092;28;20489;-66
2022/03/19 11:12:50;;;;;;;23.95;14.10;;;;;;;16.90;26.02;100787.56;5031857;28;20472;-65
2022/03/19 11:15:36;;;;;;;24.35;14.50;;;;;;;15.51;28.35;100788.66;5031661;28;20049;-67
2022/03/19 11:18:21;;;;;;;26.33;14.40;;;;;;;15.84;28.22;100787.66;5032230;28;20095;-65
2022/03/19 11:21:08;;;;;;;25.30;15.82;;;;;;;16.38;27.44;100773.06;5034283;28;20045;-65
2022/03/19 11:24:04;;;;;;;26.60;15.18;;;;;;;17.48;27.17;100780.31;5036020;28;20171;-63
2022/03/19 11:26:52;;;;;;;27.83;16.23;;;;;;;15.67;30.13;100778.06;5032063;28;20113;-66
2022/03/19 11:29:37;;;;;;;31.38;17.75;;;;;;;15.93;30.41;100772.22;5031610;28;20477;-66
2022/03/19 11:32:24;;;;;;;28.85;17.13;;;;;;;16.20;30.08;100771.53;5016692;28;20041;-65
2022/03/19 11:35:09;;;;;;;24.92;16.02;;;;;;;16.16;31.02;100760.28;5030566;28;20145;-65
2022/03/19 11:38:10;;;;;;;32.40;17.92;;;;;;;15.59;31.33;100775.03;5031811;28;20049;-64
2022/03/19 11:40:56;;;;;;;29.05;17.00;;;;;;;15.72;31.79;100762.81;5031242;28;20045;-66
2022/03/19 11:43:41;;;;;;;25.23;16.30;;;;;;;16.32;29.89;100752.25;5031390;28;20103;-66
2022/03/19 11:46:26;;;;;;;28.60;17.05;;;;;;;16.20;30.16;100751.22;5029997;28;20075;-65
2022/03/19 11:49:11;;;;;;;28.88;16.95;;;;;;;15.77;30.83;100751.97;5031445;28;20099;-65
2022/03/19 11:51:56;;;;;;;27.33;17.35;;;;;;;15.89;29.57;100756.53;5030041;28;20053;-66
2022/03/19 11:55:00;;;;;;;26.13;15.40;;;;;;;15.74;30.44;100747.72;5030044;28;20049;-66
2022/03/19 11:57:47;;;;;;;29.30;17.42;;;;;;;15.44;30.03;100745.09;5031327;28;20057;-65
2022/03/19 12:00:35;;;;;;;32.10;18.40;;;;;;;14.33;33.18;100751.91;5030483;28;20041;-65
2022/03/19 12:03:24;;;;;;;27.15;15.77;;;;;;;16.63;30.97;100750.34;5022077;28;20080;-61
2022/03/19 12:06:29;;;;;;;30.65;16.75;;;;;;;17.64;27.98;100744.00;5042013;28;20041;-64
2022/03/19 12:09:17;;;;;;;29.50;17.30;;;;;;;18.22;29.02;100738.34;5044701;28;20192;-65
2022/03/19 12:12:37;;;;;;;30.33;18.45;;;;;;;16.45;28.73;100731.19;5030507;28;20111;-64
2022/03/19 12:15:33;;;;;;;32.75;19.42;;;;;;;17.04;28.69;100739.03;5033855;28;20045;-65
2022/03/19 12:18:27;;;;;;;26.40;15.52;;;;;;;18.05;26.22;100735.03;5030266;28;20405;-64
2022/03/19 12:21:13;;;;;;;24.98;15.15;;;;;;;17.51;25.01;100736.03;5030437;28;20136;-65
2022/03/19 12:24:18;;;;;;;23.90;14.65;;;;;;;16.80;25.79;100726.41;5031030;28;20065;-64
2022/03/19 12:27:03;;;;;;;23.45;14.10;;;;;;;16.83;25.78;100734.16;5029699;28;20405;-64
2022/03/19 12:29:50;;;;;;;31.15;17.42;;;;;;;16.63;26.57;100729.19;5031028;28;20072;-63
2022/03/19 12:32:54;;;;;;;28.95;16.42;;;;;;;17.28;27.87;100727.81;5057913;28;20076;-63
2022/03/19 12:35:43;;;;;;;29.35;16.92;;;;;;;16.48;31.80;100728.34;5030887;28;20354;-65
2022/03/19 12:38:32;;;;;;;29.92;16.70;;;;;;;16.98;28.18;100729.69;5030838;28;20049;-63
2022/03/19 12:41:31;;;;;;;;;;;;;;;16.17;29.47;100719.69;5003690;28;20046;-65
2022/03/19 12:44:18;;;;;;;36.53;19.25;;;;;;;16.04;30.03;100730.16;5030501;28;19947;-63